createdAt,value
2017-12-22T00:00:17.795Z,8.45
2017-12-22T00:00:51.092Z,9.02
2017-12-22T00:01:23.625Z,8.32
2017-12-22T00:01:56.128Z,7.80
2017-12-22T00:02:28.650Z,9.23
2017-12-22T00:03:01.153Z,8.20
2017-12-22T00:03:33.678Z,9.35
2017-12-22T00:04:06.181Z,8.82
2017-12-22T00:04:38.769Z,8.85
2017-12-22T00:05:11.276Z,8.55
2017-12-22T00:05:43.797Z,8.00
2017-12-22T00:06:16.311Z,9.07
2017-12-22T00:06:49.593Z,8.60
2017-12-22T00:07:22.858Z,8.65
2017-12-22T00:07:55.382Z,8.82
2017-12-22T00:08:28.791Z,7.90
2017-12-22T00:09:01.330Z,8.57
2017-12-22T00:09:33.837Z,8.40
2017-12-22T00:10:07.183Z,7.57
2017-12-22T00:10:39.686Z,8.75
2017-12-22T00:11:12.329Z,8.80
2017-12-22T00:11:44.852Z,8.57
2017-12-22T00:12:17.501Z,8.50
2017-12-22T00:12:50.105Z,8.75
2017-12-22T00:13:23.265Z,8.57
2017-12-22T00:13:55.769Z,8.40
2017-12-22T00:14:28.388Z,8.73
2017-12-22T00:15:00.893Z,7.82
2017-12-22T00:15:44.351Z,9.20
2017-12-22T00:16:17.846Z,8.10
2017-12-22T00:16:50.428Z,9.98
2017-12-22T00:17:22.933Z,10.82
2017-12-22T00:17:55.494Z,9.25
2017-12-22T00:18:28.003Z,8.77
2017-12-22T00:19:00.510Z,9.32
2017-12-22T00:19:35.227Z,9.38
2017-12-22T00:20:07.759Z,8.75
2017-12-22T00:20:40.256Z,9.10
2017-12-22T00:21:12.771Z,9.18
2017-12-22T00:21:45.270Z,8.85
2017-12-22T00:22:17.799Z,9.55
2017-12-22T00:22:50.575Z,9.30
2017-12-22T00:23:23.214Z,9.85
2017-12-22T00:23:56.515Z,9.18
2017-12-22T00:24:29.048Z,9.55
2017-12-22T00:25:01.553Z,8.80
2017-12-22T00:25:34.053Z,10.15
2017-12-22T00:26:06.559Z,9.77
2017-12-22T00:26:40.180Z,9.15
2017-12-22T00:27:12.690Z,9.75
2017-12-22T00:27:45.966Z,8.80
2017-12-22T00:28:18.465Z,9.13
2017-12-22T00:28:50.972Z,9.25
2017-12-22T00:29:23.489Z,9.55
2017-12-22T00:29:56.079Z,9.35
2017-12-22T00:30:28.611Z,9.80
2017-12-22T00:31:01.137Z,8.82
2017-12-22T00:31:33.634Z,10.68
2017-12-22T00:32:06.139Z,8.75
2017-12-22T00:32:38.643Z,9.00
2017-12-22T00:33:16.857Z,9.73
2017-12-22T00:33:49.595Z,8.68
2017-12-22T00:34:22.213Z,9.80
2017-12-22T00:34:54.738Z,9.63
2017-12-22T00:35:28.464Z,9.73
2017-12-22T00:36:01.019Z,10.73
2017-12-22T00:36:33.606Z,9.75
2017-12-22T00:37:06.250Z,9.48
2017-12-22T00:37:38.984Z,9.18
2017-12-22T00:38:12.268Z,9.48
2017-12-22T00:38:45.685Z,10.75
2017-12-22T00:39:18.176Z,9.98
2017-12-22T00:39:50.709Z,10.52
2017-12-22T00:40:23.257Z,9.35
2017-12-22T00:40:55.740Z,9.13
2017-12-22T00:41:28.235Z,9.90
2017-12-22T00:42:00.728Z,9.50
2017-12-22T00:42:33.234Z,10.07
2017-12-22T00:43:05.766Z,9.40
2017-12-22T00:43:38.256Z,9.82
2017-12-22T00:44:10.743Z,9.63
2017-12-22T00:44:43.267Z,9.95
2017-12-22T00:45:15.760Z,9.93
2017-12-22T00:46:00.037Z,10.25
2017-12-22T00:46:33.310Z,9.23
2017-12-22T00:47:06.602Z,9.18
2017-12-22T00:47:39.868Z,10.45
2017-12-22T00:48:12.364Z,10.48
2017-12-22T00:48:44.861Z,10.00
2017-12-22T00:49:17.364Z,9.93
2017-12-22T00:49:49.853Z,9.10
2017-12-22T00:50:22.385Z,10.27
2017-12-22T00:50:55.658Z,9.65
2017-12-22T00:51:28.172Z,10.38
2017-12-22T00:52:00.657Z,9.82
2017-12-22T00:52:33.192Z,8.93
2017-12-22T00:53:05.709Z,9.98
2017-12-22T00:53:38.214Z,10.02
2017-12-22T00:54:10.721Z,10.13
2017-12-22T00:54:43.244Z,9.10
2017-12-22T00:55:15.812Z,10.73
2017-12-22T00:55:48.340Z,10.25
2017-12-22T00:56:20.843Z,9.90
2017-12-22T00:56:53.372Z,10.57
2017-12-22T00:57:26.645Z,10.80
2017-12-22T00:57:59.156Z,10.48
2017-12-22T00:58:31.664Z,10.25
2017-12-22T00:59:04.162Z,10.27
2017-12-22T00:59:36.655Z,9.93
2017-12-22T01:00:09.145Z,10.65
2017-12-22T01:00:41.662Z,9.90
2017-12-22T01:01:14.160Z,10.57
2017-12-22T01:01:46.653Z,9.80
2017-12-22T01:02:19.932Z,10.52
2017-12-22T01:02:52.440Z,10.10
2017-12-22T01:03:24.941Z,11.30
2017-12-22T01:03:58.233Z,11.57
2017-12-22T01:04:30.750Z,10.43
2017-12-22T01:05:03.247Z,10.20
2017-12-22T01:05:35.761Z,12.10
2017-12-22T01:06:08.258Z,10.63
2017-12-22T01:06:40.766Z,12.45
2017-12-22T01:07:14.091Z,10.60
2017-12-22T01:07:46.614Z,11.02
2017-12-22T01:08:19.197Z,10.15
2017-12-22T01:08:51.720Z,10.75
2017-12-22T01:09:24.228Z,11.45
2017-12-22T01:09:56.725Z,10.63
2017-12-22T01:10:29.250Z,11.25
2017-12-22T01:11:01.781Z,10.70
2017-12-22T01:11:35.046Z,11.00
2017-12-22T01:12:07.558Z,11.00
2017-12-22T01:12:40.085Z,10.95
2017-12-22T01:13:13.398Z,10.38
2017-12-22T01:13:45.917Z,10.05
2017-12-22T01:14:18.424Z,10.98
2017-12-22T01:14:50.959Z,10.13
2017-12-22T01:15:30.070Z,11.48
2017-12-22T01:16:08.352Z,10.38
2017-12-22T01:16:46.440Z,10.27
2017-12-22T01:17:24.720Z,11.88
2017-12-22T01:18:02.985Z,11.00
2017-12-22T01:18:41.180Z,9.45
2017-12-22T01:19:19.733Z,11.12
2017-12-22T01:19:52.236Z,10.43
2017-12-22T01:20:24.819Z,10.88
2017-12-22T01:20:57.354Z,11.85
2017-12-22T01:21:30.069Z,11.45
2017-12-22T01:22:02.576Z,11.20
2017-12-22T01:22:35.082Z,11.20
2017-12-22T01:23:07.590Z,12.15
2017-12-22T01:23:40.114Z,12.13
2017-12-22T01:24:12.642Z,10.45
2017-12-22T01:24:45.145Z,11.07
2017-12-22T01:25:17.648Z,11.93
2017-12-22T01:25:50.153Z,10.80
2017-12-22T01:26:22.654Z,11.48
2017-12-22T01:26:55.238Z,13.02
2017-12-22T01:27:27.831Z,11.12
2017-12-22T01:28:00.356Z,11.80
2017-12-22T01:28:32.857Z,11.52
2017-12-22T01:29:05.379Z,11.52
2017-12-22T01:29:37.892Z,10.77
2017-12-22T01:30:10.393Z,11.48
2017-12-22T01:30:42.920Z,11.07
2017-12-22T01:31:15.422Z,11.93
2017-12-22T01:31:47.936Z,10.80
2017-12-22T01:32:20.454Z,11.15
2017-12-22T01:32:52.961Z,11.40
2017-12-22T01:33:25.471Z,12.52
2017-12-22T01:33:58.000Z,11.65
2017-12-22T01:34:30.509Z,12.35
2017-12-22T01:35:03.033Z,11.38
2017-12-22T01:35:35.533Z,12.35
2017-12-22T01:36:08.049Z,11.73
2017-12-22T01:36:40.562Z,12.70
2017-12-22T01:37:13.078Z,13.35
2017-12-22T01:37:45.582Z,11.93
2017-12-22T01:38:18.090Z,12.05
2017-12-22T01:38:50.602Z,12.55
2017-12-22T01:39:23.119Z,13.55
2017-12-22T01:39:55.631Z,11.80
2017-12-22T01:40:28.153Z,11.68
2017-12-22T01:41:00.651Z,13.20
2017-12-22T01:41:33.165Z,13.27
2017-12-22T01:42:05.660Z,12.85
2017-12-22T01:42:38.162Z,12.45
2017-12-22T01:43:10.811Z,12.25
2017-12-22T01:43:43.330Z,12.88
2017-12-22T01:44:15.854Z,12.25
2017-12-22T01:44:48.378Z,13.13
2017-12-22T01:45:20.893Z,12.68
2017-12-22T01:45:53.404Z,12.80
2017-12-22T01:46:25.917Z,13.32
2017-12-22T01:46:58.618Z,13.77
2017-12-22T01:47:31.130Z,12.98
2017-12-22T01:48:03.634Z,13.57
2017-12-22T01:48:36.155Z,13.40
2017-12-22T01:49:08.671Z,13.68
2017-12-22T01:49:41.182Z,13.43
2017-12-22T01:50:13.677Z,12.77
2017-12-22T01:50:46.174Z,13.00
2017-12-22T01:51:18.700Z,13.82
2017-12-22T01:51:51.965Z,12.98
2017-12-22T01:52:24.473Z,13.05
2017-12-22T01:52:56.983Z,13.05
2017-12-22T01:53:29.496Z,12.73
2017-12-22T01:54:01.990Z,12.98
2017-12-22T01:54:34.497Z,13.07
2017-12-22T01:55:07.002Z,12.82
2017-12-22T01:55:39.510Z,13.75
2017-12-22T01:56:12.009Z,13.68
2017-12-22T01:56:44.530Z,13.30
2017-12-22T01:57:17.821Z,13.82
2017-12-22T01:57:51.090Z,12.48
2017-12-22T01:58:23.593Z,13.25
2017-12-22T01:58:56.095Z,14.45
2017-12-22T01:59:28.598Z,14.32
2017-12-22T02:00:01.109Z,14.85
2017-12-22T02:00:33.613Z,12.85
2017-12-22T02:01:06.135Z,13.82
2017-12-22T02:01:38.637Z,13.35
2017-12-22T02:02:11.154Z,12.63
2017-12-22T02:02:43.657Z,14.43
2017-12-22T02:03:16.942Z,15.02
2017-12-22T02:03:49.635Z,14.55
2017-12-22T02:04:22.150Z,14.57
2017-12-22T02:04:54.660Z,14.10
2017-12-22T02:05:27.150Z,12.75
2017-12-22T02:05:59.660Z,13.98
2017-12-22T02:06:32.924Z,12.65
2017-12-22T02:07:05.423Z,14.00
2017-12-22T02:07:37.937Z,13.40
2017-12-22T02:08:10.446Z,12.95
2017-12-22T02:08:42.957Z,13.15
2017-12-22T02:09:15.474Z,12.80
2017-12-22T02:09:47.985Z,13.15
2017-12-22T02:10:20.513Z,13.50
2017-12-22T02:10:53.068Z,13.65
2017-12-22T02:11:25.581Z,14.02
2017-12-22T02:11:58.086Z,14.05
2017-12-22T02:12:30.597Z,15.13
2017-12-22T02:13:03.144Z,13.70
2017-12-22T02:13:35.656Z,13.18
2017-12-22T02:14:08.169Z,13.52
2017-12-22T02:14:40.680Z,15.15
2017-12-22T02:15:13.951Z,14.73
2017-12-22T02:15:46.471Z,13.57
2017-12-22T02:16:19.036Z,13.62
2017-12-22T02:16:51.789Z,15.50
2017-12-22T02:17:24.304Z,13.85
2017-12-22T02:17:56.830Z,14.57
2017-12-22T02:18:29.357Z,14.02
2017-12-22T02:19:01.886Z,15.27
2017-12-22T02:19:34.395Z,13.45
2017-12-22T02:20:06.910Z,14.27
2017-12-22T02:20:39.422Z,14.50
2017-12-22T02:21:11.953Z,14.13
2017-12-22T02:21:44.478Z,14.82
2017-12-22T02:22:16.993Z,13.88
2017-12-22T02:22:49.502Z,13.75
2017-12-22T02:23:22.000Z,14.95
2017-12-22T02:23:54.513Z,13.77
2017-12-22T02:24:27.026Z,14.77
2017-12-22T02:24:59.549Z,14.18
2017-12-22T02:25:32.041Z,14.80
2017-12-22T02:26:04.560Z,15.60
2017-12-22T02:26:37.058Z,14.50
2017-12-22T02:27:09.550Z,14.77
2017-12-22T02:27:42.156Z,15.70
2017-12-22T02:28:14.722Z,16.17
2017-12-22T02:28:47.226Z,16.52
2017-12-22T02:29:19.745Z,16.08
2017-12-22T02:29:52.247Z,16.83
2017-12-22T02:30:24.764Z,14.55
2017-12-22T02:30:57.272Z,14.48
2017-12-22T02:31:29.790Z,15.52
2017-12-22T02:32:02.289Z,14.95
2017-12-22T02:32:34.825Z,15.60
2017-12-22T02:33:07.341Z,15.18
2017-12-22T02:33:39.849Z,15.35
2017-12-22T02:34:12.365Z,16.35
2017-12-22T02:34:45.644Z,15.07
2017-12-22T02:35:18.349Z,15.55
2017-12-22T02:35:50.857Z,15.40
2017-12-22T02:36:24.357Z,16.45
2017-12-22T02:36:56.868Z,15.57
2017-12-22T02:37:29.378Z,15.93
2017-12-22T02:38:01.889Z,14.82
2017-12-22T02:38:34.400Z,15.82
2017-12-22T02:39:06.907Z,16.50
2017-12-22T02:39:39.452Z,15.35
2017-12-22T02:40:12.724Z,15.70
2017-12-22T02:40:46.005Z,16.17
2017-12-22T02:41:18.535Z,14.82
2017-12-22T02:41:51.029Z,15.32
2017-12-22T02:42:23.521Z,15.68
2017-12-22T02:42:56.022Z,15.88
2017-12-22T02:43:28.595Z,16.42
2017-12-22T02:44:01.103Z,15.27
2017-12-22T02:44:33.773Z,15.40
2017-12-22T02:45:06.289Z,16.12
2017-12-22T02:45:38.910Z,15.90
2017-12-22T02:46:11.417Z,15.55
2017-12-22T02:46:43.940Z,15.93
2017-12-22T02:47:16.440Z,16.02
2017-12-22T02:47:48.955Z,14.73
2017-12-22T02:48:21.464Z,15.48
2017-12-22T02:48:54.010Z,15.57
2017-12-22T02:49:26.510Z,16.30
2017-12-22T02:49:59.019Z,15.55
2017-12-22T02:50:31.516Z,16.90
2017-12-22T02:51:04.033Z,15.43
2017-12-22T02:51:36.576Z,17.85
2017-12-22T02:52:09.089Z,15.70
2017-12-22T02:52:41.582Z,15.93
2017-12-22T02:53:14.074Z,16.92
2017-12-22T02:53:46.570Z,16.30
2017-12-22T02:54:19.084Z,16.77
2017-12-22T02:54:52.365Z,15.93
2017-12-22T02:55:24.884Z,16.15
2017-12-22T02:55:57.391Z,15.45
2017-12-22T02:56:30.682Z,15.98
2017-12-22T02:57:03.207Z,16.00
2017-12-22T02:57:35.719Z,14.55
2017-12-22T02:58:08.222Z,17.20
2017-12-22T02:58:40.755Z,16.67
2017-12-22T02:59:13.319Z,16.90
2017-12-22T02:59:45.817Z,16.12
2017-12-22T03:00:18.323Z,14.98
2017-12-22T03:00:50.888Z,16.08
2017-12-22T03:01:23.400Z,16.50
2017-12-22T03:01:55.933Z,15.68
2017-12-22T03:02:28.438Z,17.60
2017-12-22T03:03:00.945Z,17.20
2017-12-22T03:03:33.457Z,15.77
2017-12-22T03:04:05.975Z,16.58
2017-12-22T03:04:38.477Z,17.02
2017-12-22T03:05:10.985Z,17.17
2017-12-22T03:05:44.248Z,15.80
2017-12-22T03:06:16.749Z,16.67
2017-12-22T03:06:49.320Z,16.92
2017-12-22T03:07:21.846Z,16.48
2017-12-22T03:07:55.111Z,15.98
2017-12-22T03:08:27.626Z,16.40
2017-12-22T03:09:00.139Z,17.00
2017-12-22T03:09:32.650Z,16.83
2017-12-22T03:10:05.163Z,16.25
2017-12-22T03:10:37.665Z,15.75
2017-12-22T03:11:10.178Z,16.87
2017-12-22T03:11:42.689Z,16.58
2017-12-22T03:12:15.199Z,16.80
2017-12-22T03:12:47.722Z,17.92
2017-12-22T03:13:20.289Z,16.40
2017-12-22T03:13:52.854Z,15.52
2017-12-22T03:14:25.365Z,16.98
2017-12-22T03:14:57.861Z,15.60
2017-12-22T03:15:30.354Z,16.67
2017-12-22T03:16:02.865Z,17.37
2017-12-22T03:16:35.381Z,15.45
2017-12-22T03:17:07.884Z,16.35
2017-12-22T03:17:40.393Z,16.20
2017-12-22T03:18:12.949Z,15.90
2017-12-22T03:18:45.471Z,16.35
2017-12-22T03:19:17.978Z,16.75
2017-12-22T03:19:50.486Z,15.23
2017-12-22T03:20:22.991Z,17.35
2017-12-22T03:20:55.494Z,16.80
2017-12-22T03:21:28.003Z,15.85
2017-12-22T03:22:00.497Z,17.27
2017-12-22T03:22:32.999Z,16.50
2017-12-22T03:23:05.542Z,16.95
2017-12-22T03:23:38.063Z,16.15
2017-12-22T03:24:11.366Z,17.08
2017-12-22T03:24:44.125Z,17.60
2017-12-22T03:25:16.630Z,18.33
2017-12-22T03:25:49.163Z,15.45
2017-12-22T03:26:21.798Z,18.00
2017-12-22T03:26:54.296Z,17.05
2017-12-22T03:27:26.801Z,16.27
2017-12-22T03:27:59.314Z,16.05
2017-12-22T03:28:31.818Z,16.35
2017-12-22T03:29:04.342Z,16.95
2017-12-22T03:29:36.840Z,16.42
2017-12-22T03:30:09.358Z,17.08
2017-12-22T03:30:41.870Z,18.15
2017-12-22T03:31:14.389Z,17.45
2017-12-22T03:31:46.892Z,17.30
2017-12-22T03:32:19.397Z,17.42
2017-12-22T03:32:51.909Z,18.08
2017-12-22T03:33:24.439Z,18.37
2017-12-22T03:33:57.111Z,17.55
2017-12-22T03:34:29.673Z,17.02
2017-12-22T03:35:02.194Z,17.80
2017-12-22T03:35:34.712Z,16.40
2017-12-22T03:36:07.222Z,16.40
2017-12-22T03:36:39.784Z,18.55
2017-12-22T03:37:12.287Z,18.17
2017-12-22T03:37:44.806Z,17.50
2017-12-22T03:38:17.302Z,16.20
2017-12-22T03:38:49.806Z,18.98
2017-12-22T03:39:22.322Z,18.67
2017-12-22T03:39:55.603Z,16.00
2017-12-22T03:40:28.873Z,16.62
2017-12-22T03:41:02.209Z,17.87
2017-12-22T03:41:34.713Z,17.27
2017-12-22T03:42:07.228Z,16.75
2017-12-22T03:42:39.771Z,17.30
2017-12-22T03:43:12.273Z,16.95
2017-12-22T03:43:44.795Z,18.10
2017-12-22T03:44:17.333Z,20.25
2017-12-22T03:44:49.834Z,18.20
2017-12-22T03:45:22.345Z,18.20
2017-12-22T03:45:54.849Z,17.15
2017-12-22T03:46:27.489Z,19.08
2017-12-22T03:47:00.060Z,16.92
2017-12-22T03:47:32.522Z,18.05
2017-12-22T03:48:05.804Z,17.17
2017-12-22T03:48:39.084Z,16.95
2017-12-22T03:49:11.582Z,17.90
2017-12-22T03:49:44.073Z,17.52
2017-12-22T03:50:16.600Z,17.73
2017-12-22T03:50:49.118Z,18.20
2017-12-22T03:51:22.409Z,17.80
2017-12-22T03:51:55.062Z,18.65
2017-12-22T03:52:27.579Z,18.65
2017-12-22T03:53:00.097Z,19.12
2017-12-22T03:53:32.598Z,17.80
2017-12-22T03:54:05.189Z,19.55
2017-12-22T03:54:37.686Z,16.85
2017-12-22T03:55:10.973Z,16.15
2017-12-22T03:55:43.567Z,18.85
2017-12-22T03:56:16.091Z,17.27
2017-12-22T03:56:48.792Z,17.15
2017-12-22T03:57:21.298Z,18.00
2017-12-22T03:57:53.849Z,17.00
2017-12-22T03:58:26.363Z,17.60
2017-12-22T03:58:58.876Z,19.17
2017-12-22T03:59:31.401Z,17.85
2017-12-22T04:00:03.909Z,17.58
2017-12-22T04:00:36.414Z,16.92
2017-12-22T04:01:09.106Z,19.30
2017-12-22T04:01:41.618Z,16.60
2017-12-22T04:02:14.133Z,17.42
2017-12-22T04:02:46.643Z,18.40
2017-12-22T04:03:19.146Z,17.42
2017-12-22T04:03:51.656Z,18.42
2017-12-22T04:04:24.154Z,17.30
2017-12-22T04:04:57.457Z,16.30
2017-12-22T04:05:29.953Z,17.37
2017-12-22T04:06:02.466Z,18.62
2017-12-22T04:06:35.738Z,17.02
2017-12-22T04:07:08.257Z,18.92
2017-12-22T04:07:40.755Z,18.20
2017-12-22T04:08:13.261Z,19.08
2017-12-22T04:08:45.769Z,17.75
2017-12-22T04:09:18.273Z,18.35
2017-12-22T04:09:50.794Z,18.62
2017-12-22T04:10:23.292Z,17.58
2017-12-22T04:10:55.789Z,18.20
2017-12-22T04:11:28.288Z,18.23
2017-12-22T04:12:00.801Z,18.30
2017-12-22T04:12:33.336Z,18.83
2017-12-22T04:13:05.878Z,19.10
2017-12-22T04:13:39.167Z,18.98
2017-12-22T04:14:11.669Z,18.90
2017-12-22T04:14:44.191Z,17.33
2017-12-22T04:15:16.894Z,17.77
2017-12-22T04:15:49.395Z,17.87
2017-12-22T04:16:22.007Z,18.15
2017-12-22T04:16:54.566Z,19.37
2017-12-22T04:17:27.851Z,17.35
2017-12-22T04:18:01.152Z,18.77
2017-12-22T04:18:33.653Z,17.08
2017-12-22T04:19:06.152Z,17.27
2017-12-22T04:19:38.670Z,18.02
2017-12-22T04:20:11.181Z,17.55
2017-12-22T04:20:43.694Z,18.00
2017-12-22T04:21:16.205Z,18.70
2017-12-22T04:21:48.725Z,19.25
2017-12-22T04:22:21.222Z,18.40
2017-12-22T04:22:54.495Z,17.75
2017-12-22T04:23:27.145Z,17.92
2017-12-22T04:23:59.670Z,17.80
2017-12-22T04:24:32.201Z,17.30
2017-12-22T04:25:05.470Z,17.15
2017-12-22T04:25:37.969Z,18.70
2017-12-22T04:26:10.476Z,17.58
2017-12-22T04:26:42.974Z,17.65
2017-12-22T04:27:16.298Z,17.58
2017-12-22T04:27:48.811Z,18.70
2017-12-22T04:28:21.321Z,18.20
2017-12-22T04:28:53.833Z,17.70
2017-12-22T04:29:27.101Z,18.17
2017-12-22T04:30:00.381Z,17.08
2017-12-22T04:30:32.952Z,17.90
2017-12-22T04:31:05.416Z,17.40
2017-12-22T04:31:37.917Z,18.40
2017-12-22T04:32:10.426Z,19.50
2017-12-22T04:32:42.931Z,18.00
2017-12-22T04:33:15.439Z,17.98
2017-12-22T04:33:47.949Z,18.98
2017-12-22T04:34:20.466Z,18.30
2017-12-22T04:34:52.970Z,20.08
2017-12-22T04:35:26.232Z,17.87
2017-12-22T04:35:58.790Z,18.23
2017-12-22T04:36:31.980Z,19.67
2017-12-22T04:37:04.485Z,19.10
2017-12-22T04:37:36.998Z,17.73
2017-12-22T04:38:09.511Z,19.37
2017-12-22T04:38:42.051Z,17.83
2017-12-22T04:39:14.562Z,18.50
2017-12-22T04:39:47.077Z,18.58
2017-12-22T04:40:19.582Z,18.90
2017-12-22T04:40:52.095Z,19.23
2017-12-22T04:41:25.370Z,18.33
2017-12-22T04:41:58.638Z,18.50
2017-12-22T04:42:31.144Z,18.37
2017-12-22T04:43:03.678Z,19.02
2017-12-22T04:43:36.189Z,18.90
2017-12-22T04:44:08.707Z,16.37
2017-12-22T04:44:42.150Z,20.70
2017-12-22T04:45:14.684Z,19.50
2017-12-22T04:45:47.186Z,17.50
2017-12-22T04:46:19.678Z,18.10
2017-12-22T04:46:52.202Z,19.10
2017-12-22T04:47:24.702Z,17.40
2017-12-22T04:47:58.405Z,17.77
2017-12-22T04:48:30.914Z,18.55
2017-12-22T04:49:03.427Z,18.75
2017-12-22T04:49:35.925Z,19.70
2017-12-22T04:50:08.430Z,18.30
2017-12-22T04:50:40.949Z,16.95
2017-12-22T04:51:13.457Z,18.70
2017-12-22T04:51:45.954Z,17.35
2017-12-22T04:52:19.270Z,17.65
2017-12-22T04:52:51.771Z,18.87
2017-12-22T04:53:25.053Z,18.83
2017-12-22T04:53:58.330Z,18.30
2017-12-22T04:54:30.838Z,18.00
2017-12-22T04:55:03.351Z,17.17
2017-12-22T04:55:35.856Z,17.83
2017-12-22T04:56:08.372Z,16.42
2017-12-22T04:56:40.876Z,18.37
2017-12-22T04:57:13.370Z,16.65
2017-12-22T04:57:45.877Z,16.67
2017-12-22T04:58:19.146Z,16.27
2017-12-22T04:58:52.414Z,17.00
2017-12-22T04:59:24.917Z,16.00
2017-12-22T04:59:57.432Z,16.30
2017-12-22T05:00:29.951Z,17.12
2017-12-22T05:01:02.482Z,16.77
2017-12-22T05:01:35.776Z,16.95
2017-12-22T05:02:08.325Z,17.50
2017-12-22T05:02:41.588Z,17.10
2017-12-22T05:03:14.108Z,16.90
2017-12-22T05:03:46.617Z,17.15
2017-12-22T05:04:19.161Z,18.08
2017-12-22T05:04:51.673Z,16.85
2017-12-22T05:05:24.186Z,16.55
2017-12-22T05:05:56.697Z,15.55
2017-12-22T05:06:29.998Z,17.45
2017-12-22T05:07:02.561Z,17.00
2017-12-22T05:07:35.074Z,16.08
2017-12-22T05:08:07.610Z,15.90
2017-12-22T05:08:40.186Z,16.10
2017-12-22T05:09:12.697Z,16.52
2017-12-22T05:09:45.204Z,14.82
2017-12-22T05:10:17.718Z,15.93
2017-12-22T05:10:50.237Z,16.35
2017-12-22T05:11:22.905Z,17.95
2017-12-22T05:11:55.447Z,17.58
2017-12-22T05:12:27.970Z,18.23
2017-12-22T05:13:00.479Z,16.70
2017-12-22T05:13:32.978Z,16.62
2017-12-22T05:14:05.489Z,16.52
2017-12-22T05:14:37.993Z,16.42
2017-12-22T05:15:10.502Z,15.57
2017-12-22T05:15:43.023Z,16.35
2017-12-22T05:16:16.117Z,17.15
2017-12-22T05:16:48.626Z,16.73
2017-12-22T05:17:21.141Z,16.00
2017-12-22T05:17:53.668Z,16.62
2017-12-22T05:18:26.164Z,15.77
2017-12-22T05:18:59.441Z,17.23
2017-12-22T05:19:31.958Z,16.15
2017-12-22T05:20:04.477Z,16.35
2017-12-22T05:20:36.985Z,15.63
2017-12-22T05:21:09.497Z,16.37
2017-12-22T05:21:42.005Z,16.55
2017-12-22T05:22:14.498Z,16.27
2017-12-22T05:22:47.005Z,15.75
2017-12-22T05:23:19.522Z,15.90
2017-12-22T05:23:52.067Z,16.17
2017-12-22T05:24:24.575Z,15.35
2017-12-22T05:24:57.088Z,16.05
2017-12-22T05:25:29.596Z,15.90
2017-12-22T05:26:02.114Z,14.82
2017-12-22T05:26:34.626Z,15.68
2017-12-22T05:27:07.137Z,17.00
2017-12-22T05:27:39.662Z,15.80
2017-12-22T05:28:12.935Z,14.73
2017-12-22T05:28:45.519Z,14.68
2017-12-22T05:29:18.029Z,15.32
2017-12-22T05:29:50.557Z,14.45
2017-12-22T05:30:23.213Z,15.23
2017-12-22T05:30:55.718Z,16.30
2017-12-22T05:31:28.222Z,14.55
2017-12-22T05:32:01.558Z,16.20
2017-12-22T05:32:34.076Z,16.30
2017-12-22T05:33:06.582Z,15.98
2017-12-22T05:33:39.098Z,15.75
2017-12-22T05:34:12.408Z,17.48
2017-12-22T05:34:44.916Z,16.83
2017-12-22T05:35:17.547Z,17.50
2017-12-22T05:35:50.172Z,17.35
2017-12-22T05:36:23.438Z,16.10
2017-12-22T05:36:55.951Z,16.60
2017-12-22T05:37:28.454Z,16.23
2017-12-22T05:38:00.953Z,15.75
2017-12-22T05:38:33.466Z,15.82
2017-12-22T05:39:05.973Z,15.98
2017-12-22T05:39:39.263Z,15.88
2017-12-22T05:40:11.842Z,16.42
2017-12-22T05:40:44.349Z,15.80
2017-12-22T05:41:16.865Z,17.05
2017-12-22T05:41:49.446Z,16.70
2017-12-22T05:42:21.961Z,16.15
2017-12-22T05:42:55.266Z,14.60
2017-12-22T05:43:27.792Z,16.20
2017-12-22T05:44:00.308Z,15.77
2017-12-22T05:44:32.809Z,14.10
2017-12-22T05:45:05.317Z,15.07
2017-12-22T05:45:37.818Z,15.13
2017-12-22T05:46:10.367Z,15.10
2017-12-22T05:46:42.857Z,14.87
2017-12-22T05:47:15.374Z,13.00
2017-12-22T05:47:47.875Z,15.60
2017-12-22T05:48:20.376Z,14.68
2017-12-22T05:48:52.870Z,16.37
2017-12-22T05:49:25.369Z,14.50
2017-12-22T05:49:57.880Z,14.63
2017-12-22T05:50:30.400Z,15.60
2017-12-22T05:51:02.908Z,15.40
2017-12-22T05:51:35.412Z,17.23
2017-12-22T05:52:07.917Z,18.80
2017-12-22T05:52:41.198Z,16.85
2017-12-22T05:53:14.470Z,17.00
2017-12-22T05:53:47.737Z,15.35
2017-12-22T05:54:20.246Z,15.35
2017-12-22T05:54:52.748Z,13.60
2017-12-22T05:55:25.258Z,14.68
2017-12-22T05:55:57.786Z,14.02
2017-12-22T05:56:30.333Z,14.30
2017-12-22T05:57:02.855Z,14.45
2017-12-22T05:57:35.521Z,13.90
2017-12-22T05:58:08.038Z,14.45
2017-12-22T05:58:40.536Z,13.95
2017-12-22T05:59:13.033Z,12.90
2017-12-22T05:59:45.545Z,15.30
2017-12-22T06:00:18.817Z,15.40
2017-12-22T06:00:51.371Z,15.73
2017-12-22T06:01:23.905Z,14.85
2017-12-22T06:01:56.451Z,14.98
2017-12-22T06:02:28.985Z,16.52
2017-12-22T06:03:02.245Z,15.77
2017-12-22T06:03:34.750Z,14.90
2017-12-22T06:04:07.266Z,15.45
2017-12-22T06:04:39.769Z,15.07
2017-12-22T06:05:12.274Z,15.57
2017-12-22T06:05:44.786Z,14.95
2017-12-22T06:06:17.316Z,14.77
2017-12-22T06:06:49.838Z,16.20
2017-12-22T06:07:22.385Z,14.68
2017-12-22T06:07:54.886Z,14.75
2017-12-22T06:08:27.394Z,14.50
2017-12-22T06:09:00.700Z,14.40
2017-12-22T06:09:33.389Z,14.32
2017-12-22T06:10:05.913Z,14.80
2017-12-22T06:10:38.427Z,14.05
2017-12-22T06:11:10.946Z,15.07
2017-12-22T06:11:43.469Z,15.77
2017-12-22T06:12:15.998Z,14.40
2017-12-22T06:12:48.496Z,14.80
2017-12-22T06:13:21.016Z,14.40
2017-12-22T06:13:53.514Z,14.75
2017-12-22T06:14:26.016Z,14.63
2017-12-22T06:14:59.290Z,14.10
2017-12-22T06:15:31.820Z,14.00
2017-12-22T06:16:04.341Z,13.43
2017-12-22T06:16:36.848Z,13.85
2017-12-22T06:17:09.360Z,14.77
2017-12-22T06:17:41.925Z,13.80
2017-12-22T06:18:14.436Z,14.00
2017-12-22T06:18:47.057Z,14.02
2017-12-22T06:19:19.553Z,13.20
2017-12-22T06:19:52.053Z,14.45
2017-12-22T06:20:24.562Z,14.15
2017-12-22T06:20:57.076Z,12.15
2017-12-22T06:21:30.495Z,13.40
2017-12-22T06:22:02.998Z,13.52
2017-12-22T06:22:35.506Z,14.05
2017-12-22T06:23:08.059Z,13.70
2017-12-22T06:23:41.328Z,14.07
2017-12-22T06:24:13.849Z,12.93
2017-12-22T06:24:46.342Z,12.80
2017-12-22T06:25:18.852Z,13.15
2017-12-22T06:25:51.401Z,13.40
2017-12-22T06:26:23.937Z,13.60
2017-12-22T06:26:56.430Z,13.52
2017-12-22T06:27:28.942Z,14.52
2017-12-22T06:28:01.444Z,13.82
2017-12-22T06:28:33.965Z,14.30
2017-12-22T06:29:06.698Z,14.02
2017-12-22T06:29:39.202Z,13.43
2017-12-22T06:30:11.721Z,13.35
2017-12-22T06:30:44.280Z,13.10
2017-12-22T06:31:16.797Z,13.30
2017-12-22T06:31:49.307Z,14.55
2017-12-22T06:32:21.819Z,13.07
2017-12-22T06:32:54.323Z,13.25
2017-12-22T06:33:26.820Z,13.48
2017-12-22T06:33:59.347Z,14.02
2017-12-22T06:34:31.866Z,13.43
2017-12-22T06:35:04.375Z,14.23
2017-12-22T06:35:36.893Z,13.52
2017-12-22T06:36:09.437Z,13.30
2017-12-22T06:36:41.961Z,12.75
2017-12-22T06:37:14.473Z,12.93
2017-12-22T06:37:46.971Z,13.73
2017-12-22T06:38:19.517Z,14.50
2017-12-22T06:38:52.228Z,13.80
2017-12-22T06:39:24.754Z,17.20
2017-12-22T06:39:57.265Z,16.60
2017-12-22T06:40:29.780Z,14.13
2017-12-22T06:41:03.070Z,16.52
2017-12-22T06:41:35.605Z,15.60
2017-12-22T06:42:08.108Z,14.35
2017-12-22T06:42:40.617Z,15.30
2017-12-22T06:43:13.152Z,15.27
2017-12-22T06:43:45.639Z,13.68
2017-12-22T06:44:18.177Z,14.15
2017-12-22T06:44:50.687Z,14.30
2017-12-22T06:45:23.213Z,15.07
2017-12-22T06:45:55.741Z,14.60
2017-12-22T06:46:28.439Z,14.18
2017-12-22T06:47:00.946Z,13.60
2017-12-22T06:47:33.478Z,13.82
2017-12-22T06:48:05.999Z,13.98
2017-12-22T06:48:39.271Z,13.27
2017-12-22T06:49:11.786Z,12.88
2017-12-22T06:49:44.303Z,13.98
2017-12-22T06:50:16.813Z,14.05
2017-12-22T06:50:49.317Z,13.10
2017-12-22T06:51:22.023Z,14.68
2017-12-22T06:51:54.561Z,14.55
2017-12-22T06:52:27.060Z,13.57
2017-12-22T06:52:59.639Z,14.38
2017-12-22T06:53:32.156Z,14.50
2017-12-22T06:54:05.458Z,14.02
2017-12-22T06:54:37.978Z,14.60
2017-12-22T06:55:10.503Z,13.80
2017-12-22T06:55:43.075Z,12.73
2017-12-22T06:56:15.567Z,12.80
2017-12-22T06:56:48.071Z,14.02
2017-12-22T06:57:20.578Z,14.32
2017-12-22T06:57:53.085Z,13.18
2017-12-22T06:58:25.581Z,13.05
2017-12-22T06:58:58.082Z,14.25
2017-12-22T06:59:30.595Z,13.57
2017-12-22T07:00:03.109Z,14.80
2017-12-22T07:00:35.643Z,17.77
2017-12-22T07:01:08.182Z,15.75
2017-12-22T07:01:40.688Z,14.35
2017-12-22T07:02:13.192Z,15.00
2017-12-22T07:02:46.590Z,14.40